TimeCST,TemperatureF,Dew PointF,Humidity,Sea Level PressureIn,VisibilityMPH,Wind Direction,Wind SpeedMPH,Gust SpeedMPH,PrecipitationIn,Events,Conditions,WindDirDegrees,DateUTC
12:15 AM,37.4,24.8,60,30.16,10.0,SSE,9.2,-,N/A,,Clear,150,2012-12-13 06:15:00
12:35 AM,39.2,24.8,56,30.16,10.0,SSE,9.2,-,N/A,,Clear,150,2012-12-13 06:35:00
12:55 AM,41.0,24.8,53,30.15,10.0,SSE,9.2,-,N/A,,Clear,150,2012-12-13 06:55:00
1:15 AM,39.2,24.8,56,30.15,10.0,SSE,6.9,-,N/A,,Clear,150,2012-12-13 07:15:00
1:35 AM,42.8,24.8,49,30.15,10.0,South,13.8,21.9,N/A,,Clear,170,2012-12-13 07:35:00
1:55 AM,42.8,24.8,49,30.15,10.0,SSE,12.7,-,N/A,,Clear,160,2012-12-13 07:55:00
2:15 AM,41.0,24.8,53,30.15,-9999.0,South,11.5,-,N/A,,Clear,170,2012-12-13 08:15:00
2:35 AM,42.8,24.8,49,30.15,-9999.0,South,12.7,19.6,N/A,,Clear,170,2012-12-13 08:35:00
2:55 AM,42.8,24.8,49,30.16,-9999.0,SSE,11.5,17.3,N/A,,Clear,160,2012-12-13 08:55:00
3:15 AM,42.8,24.8,49,30.17,-9999.0,SSE,5.8,-,N/A,,Clear,160,2012-12-13 09:15:00
3:35 AM,41.0,24.8,53,30.17,-9999.0,South,6.9,-,N/A,,Clear,170,2012-12-13 09:35:00
3:55 AM,39.2,24.8,56,30.16,-9999.0,South,8.1,-,N/A,,Clear,170,2012-12-13 09:55:00
4:15 AM,37.4,24.8,60,30.15,-9999.0,South,8.1,-,N/A,,Clear,170,2012-12-13 10:15:00
4:35 AM,37.4,24.8,60,30.15,-9999.0,SE,6.9,-,N/A,,Clear,130,2012-12-13 10:35:00
4:55 AM,37.4,24.8,60,30.15,-9999.0,SSE,9.2,-,N/A,,Clear,160,2012-12-13 10:55:00
5:15 AM,37.4,26.6,65,30.15,10.0,SSE,11.5,-,N/A,,Clear,160,2012-12-13 11:15:00
5:35 AM,37.4,26.6,65,30.15,-9999.0,SSE,8.1,-,N/A,,Clear,150,2012-12-13 11:35:00
5:55 AM,35.6,24.8,65,30.15,10.0,SSE,5.8,-,N/A,,Clear,150,2012-12-13 11:55:00
6:15 AM,33.8,23.0,65,30.16,-9999.0,Calm,Calm,-,N/A,,Clear,0,2012-12-13 12:15:00
6:35 AM,33.8,26.6,75,30.17,10.0,East,3.5,-,N/A,,Clear,80,2012-12-13 12:35:00
6:55 AM,33.8,24.8,70,30.17,10.0,SE,3.5,-,N/A,,Clear,130,2012-12-13 12:55:00
7:15 AM,35.6,24.8,65,30.17,10.0,SE,4.6,-,N/A,,Clear,140,2012-12-13 13:15:00
7:35 AM,33.8,23.0,65,30.17,-9999.0,SSE,8.1,-,N/A,,Clear,160,2012-12-13 13:35:00
7:55 AM,35.6,24.8,65,30.18,10.0,SSE,8.1,-,N/A,,Clear,160,2012-12-13 13:55:00
8:15 AM,37.4,26.6,65,30.18,10.0,South,4.6,-,N/A,,Clear,170,2012-12-13 14:15:00
8:35 AM,41.0,26.6,57,30.18,10.0,South,13.8,19.6,N/A,,Clear,190,2012-12-13 14:35:00
8:55 AM,42.8,26.6,53,30.19,10.0,South,11.5,16.1,N/A,,Clear,180,2012-12-13 14:55:00
9:15 AM,46.4,28.4,50,30.19,10.0,South,11.5,17.3,N/A,,Clear,190,2012-12-13 15:15:00
9:35 AM,48.2,28.4,46,30.19,10.0,South,15.0,19.6,N/A,,Clear,190,2012-12-13 15:35:00
9:55 AM,48.2,28.4,46,30.19,10.0,South,13.8,19.6,N/A,,Clear,190,2012-12-13 15:55:00
10:15 AM,51.8,28.4,41,30.19,10.0,South,18.4,21.9,N/A,,Clear,190,2012-12-13 16:15:00
10:35 AM,51.8,28.4,41,30.19,10.0,South,15.0,23.0,N/A,,Clear,190,2012-12-13 16:35:00
10:55 AM,53.6,30.2,41,30.19,10.0,SSW,11.5,21.9,N/A,,Clear,200,2012-12-13 16:55:00
11:15 AM,53.6,30.2,41,30.19,10.0,SSW,16.1,20.7,N/A,,Clear,210,2012-12-13 17:15:00
11:35 AM,55.4,30.2,38,30.18,10.0,South,16.1,19.6,N/A,,Clear,190,2012-12-13 17:35:00
11:55 AM,55.4,32.0,41,30.17,10.0,South,12.7,17.3,N/A,,Clear,190,2012-12-13 17:55:00
12:15 PM,55.4,30.2,38,30.16,10.0,South,13.8,20.7,N/A,,Clear,180,2012-12-13 18:15:00
12:35 PM,59.0,32.0,36,30.15,10.0,South,13.8,19.6,N/A,,Clear,190,2012-12-13 18:35:00
12:55 PM,59.0,32.0,36,30.14,10.0,South,13.8,20.7,N/A,,Clear,190,2012-12-13 18:55:00
1:15 PM,59.0,32.0,36,30.13,10.0,South,11.5,18.4,N/A,,Clear,190,2012-12-13 19:15:00
1:35 PM,60.8,32.0,34,30.13,10.0,SSW,17.3,23.0,N/A,,Clear,200,2012-12-13 19:35:00
1:55 PM,60.8,32.0,34,30.11,10.0,SSW,15.0,21.9,N/A,,Clear,200,2012-12-13 19:55:00
2:15 PM,60.8,32.0,34,30.10,10.0,South,10.4,-,N/A,,Clear,190,2012-12-13 20:15:00
2:35 PM,60.8,32.0,34,30.10,10.0,South,16.1,21.9,N/A,,Clear,170,2012-12-13 20:35:00
2:55 PM,60.8,32.0,34,30.09,10.0,SSW,11.5,19.6,N/A,,Clear,200,2012-12-13 20:55:00
3:15 PM,60.8,32.0,34,30.10,10.0,SSW,12.7,-,N/A,,Clear,200,2012-12-13 21:15:00
3:35 PM,60.8,32.0,34,30.09,10.0,South,11.5,18.4,N/A,,Clear,180,2012-12-13 21:35:00
3:55 PM,60.8,32.0,34,30.09,10.0,South,12.7,17.3,N/A,,Clear,190,2012-12-13 21:55:00
4:15 PM,60.8,32.0,34,30.08,10.0,South,10.4,17.3,N/A,,Clear,180,2012-12-13 22:15:00
4:35 PM,60.8,32.0,34,30.08,10.0,South,6.9,-,N/A,,Clear,180,2012-12-13 22:35:00
7:15 PM,50.0,32.0,50,30.11,10.0,SE,8.1,-,N/A,,Clear,140,2012-12-14 01:15:00
7:35 PM,48.2,32.0,54,30.10,10.0,SE,8.1,-,N/A,,Clear,140,2012-12-14 01:35:00
7:55 PM,50.0,32.0,50,30.11,10.0,SE,10.4,16.1,N/A,,Clear,140,2012-12-14 01:55:00
8:15 PM,48.2,32.0,54,30.12,10.0,SE,5.8,-,N/A,,Clear,130,2012-12-14 02:15:00
8:35 PM,48.2,32.0,54,30.12,10.0,SSE,8.1,-,N/A,,Clear,150,2012-12-14 02:35:00
8:55 PM,50.0,32.0,50,30.11,10.0,SE,6.9,-,N/A,,Clear,140,2012-12-14 02:55:00
9:15 PM,48.2,32.0,54,30.12,10.0,SE,5.8,-,N/A,,Clear,140,2012-12-14 03:15:00
9:35 PM,48.2,32.0,54,30.12,10.0,SE,5.8,-,N/A,,Clear,130,2012-12-14 03:35:00
9:55 PM,48.2,32.0,54,30.11,10.0,SE,10.4,-,N/A,,Clear,140,2012-12-14 03:55:00
10:15 PM,48.2,32.0,54,30.12,10.0,SSE,10.4,-,N/A,,Clear,160,2012-12-14 04:15:00
10:35 PM,48.2,32.0,54,30.12,10.0,SSE,11.5,-,N/A,,Clear,160,2012-12-14 04:35:00
10:55 PM,46.4,32.0,57,30.12,10.0,SSE,10.4,-,N/A,,Clear,160,2012-12-14 04:55:00
11:15 PM,46.4,32.0,57,30.11,10.0,SSE,8.1,-,N/A,,Clear,150,2012-12-14 05:15:00
11:35 PM,48.2,32.0,54,30.12,10.0,SSE,8.1,-,N/A,,Clear,150,2012-12-14 05:35:00